Time;durP1;ratioP1;P1;durP2;ratioP2;P2;SDS_P1;SDS_P2;PMS_P1;PMS_P2;Temp;Humidity;BMP_temperature;BMP_pressure;BME280_temperature;BME280_humidity;BME280_pressure;Samples;Min_cycle;Max_cycle;Signal;HPM_P1;HPM_P2
2023/01/09 00:00:03;;;;;;;;;;;5.80;99.90;;;;;;5041526;28;19953;-70
2023/01/09 00:02:30;;;;;;;;;;;5.80;99.90;;;;;;5041743;28;19921;-70
2023/01/09 00:04:56;;;;;;;;;;;5.80;99.90;;;;;;5041475;28;20328;-71
2023/01/09 00:07:24;;;;;;;;;;;5.80;99.90;;;;;;5041107;28;19988;-70
2023/01/09 00:09:51;;;;;;;;;;;5.80;99.90;;;;;;5041486;28;19927;-70
2023/01/09 00:12:19;;;;;;;;;;;5.80;99.90;;;;;;5041339;28;20236;-71
2023/01/09 00:14:45;;;;;;;;;;;5.80;99.90;;;;;;5041307;28;20143;-71
2023/01/09 00:17:12;;;;;;;;;;;5.80;99.90;;;;;;5040112;28;20334;-70
2023/01/09 00:19:39;;;;;;;;;;;5.80;99.90;;;;;;5041253;28;19943;-70
2023/01/09 00:22:08;;;;;;;;;;;5.80;99.90;;;;;;5041421;28;19991;-70
2023/01/09 00:24:36;;;;;;;;;;;5.80;99.90;;;;;;5041417;28;19956;-70
2023/01/09 00:27:03;;;;;;;;;;;5.80;99.90;;;;;;5040804;28;19953;-70
2023/01/09 00:29:29;;;;;;;;;;;5.70;99.90;;;;;;5041377;28;19921;-70
2023/01/09 00:31:56;;;;;;;;;;;5.80;99.90;;;;;;5041385;28;19928;-70
2023/01/09 00:34:23;;;;;;;;;;;5.80;99.90;;;;;;5041339;28;19984;-71
2023/01/09 00:36:53;;;;;;;;;;;5.80;99.90;;;;;;5041074;28;19952;-71
2023/01/09 00:39:20;;;;;;;;;;;5.80;99.90;;;;;;5040804;28;20116;-72
2023/01/09 00:41:50;;;;;;;;;;;5.80;99.90;;;;;;5040801;28;20241;-70
2023/01/09 00:44:18;;;;;;;;;;;5.80;99.90;;;;;;5040973;28;19928;-70
2023/01/09 00:46:46;;;;;;;;;;;5.80;99.90;;;;;;5040865;28;19980;-70
2023/01/09 00:49:14;;;;;;;;;;;5.80;99.90;;;;;;5040579;28;20284;-71
2023/01/09 00:51:41;;;;;;;;;;;5.80;99.90;;;;;;5040502;28;19984;-70
2023/01/09 00:54:08;;;;;;;;;;;5.80;99.90;;;;;;5041019;28;20255;-72
2023/01/09 00:56:35;;;;;;;;;;;5.80;99.90;;;;;;5040463;28;19984;-70
2023/01/09 00:59:04;;;;;;;;;;;5.80;99.90;;;;;;5040493;28;19989;-71
2023/01/09 01:01:30;;;;;;;;;;;5.80;99.90;;;;;;5040643;28;19921;-70
2023/01/09 01:03:57;;;;;;;;;;;5.80;99.90;;;;;;5040987;28;19953;-70
2023/01/09 01:09:08;;;;;;;;;;;5.80;99.90;;;;;;5040399;28;19939;-70
2023/01/09 01:11:35;;;;;;;;;;;5.80;99.90;;;;;;5040911;28;19956;-71
2023/01/09 01:14:01;;;;;;;;;;;5.80;99.90;;;;;;5040428;28;19988;-70
2023/01/09 01:16:29;;;;;;;;;;;5.90;99.90;;;;;;5040494;28;19928;-70
2023/01/09 01:18:56;;;;;;;;;;;5.90;99.90;;;;;;5040432;28;20233;-71
2023/01/09 01:21:22;;;;;;;;;;;5.90;99.90;;;;;;5040460;28;19996;-71
2023/01/09 01:23:49;;;;;;;;;;;5.90;99.90;;;;;;5040681;28;19983;-70
2023/01/09 01:26:16;;;;;;;;;;;5.90;99.90;;;;;;5040099;28;20184;-70
2023/01/09 01:28:43;;;;;;;;;;;5.90;99.90;;;;;;5042257;28;19921;-71
2023/01/09 01:31:15;;;;;;;;;;;5.90;99.90;;;;;;5043827;28;20116;-71
2023/01/09 01:33:43;;;;;;;;;;;5.90;99.90;;;;;;5043667;28;19958;-71
2023/01/09 01:36:10;;;;;;;;;;;5.90;99.90;;;;;;5043500;28;19943;-71
2023/01/09 01:38:37;;;;;;;;;;;6.00;99.90;;;;;;5043691;28;19984;-70
2023/01/09 01:41:05;;;;;;;;;;;6.00;99.90;;;;;;5043709;28;19921;-70
2023/01/09 01:43:51;;;;;;;;;;;6.00;99.90;;;;;;5044040;28;19960;-70
2023/01/09 01:46:18;;;;;;;;;;;6.00;99.90;;;;;;5043616;27;19980;-70
2023/01/09 01:48:46;;;;;;;;;;;6.00;99.90;;;;;;5043643;27;19927;-71
2023/01/09 01:51:14;;;;;;;;;;;6.00;99.90;;;;;;5043843;28;20116;-70
2023/01/09 01:53:43;;;;;;;;;;;6.10;99.90;;;;;;5043667;28;19957;-70
2023/01/09 01:56:10;;;;;;;;;;;6.10;99.90;;;;;;5043641;28;19984;-71
2023/01/09 01:58:38;;;;;;;;;;;6.20;99.90;;;;;;5043453;28;19985;-71
2023/01/09 02:01:05;;;;;;;;;;;6.20;99.90;;;;;;5043498;28;19988;-71
2023/01/09 02:03:32;;;;;;;;;;;6.20;99.90;;;;;;5043702;28;19927;-71
2023/01/09 02:06:00;;;;;;;;;;;6.20;99.90;;;;;;5043413;28;20159;-70
2023/01/09 02:08:27;;;;;;;;;;;6.20;99.90;;;;;;5043229;28;19922;-70
2023/01/09 02:10:54;;;;;;;;;;;6.20;99.90;;;;;;5043500;28;19982;-71
2023/01/09 02:13:21;;;;;;;;;;;6.30;99.90;;;;;;5043177;28;20264;-71
2023/01/09 02:15:51;;;;;;;;;;;6.30;99.90;;;;;;5042954;28;20237;-71
2023/01/09 02:18:24;;;;;;;;;;;6.30;99.90;;;;;;5043074;28;19959;-70
2023/01/09 02:20:57;;;;;;;;;;;6.30;99.90;;;;;;5043405;28;19921;-71
2023/01/09 02:23:34;;;;;;;;;;;6.30;99.90;;;;;;5043316;28;19975;-71
2023/01/09 02:26:18;;;;;;;;;;;6.30;99.90;;;;;;5043134;28;19921;-71
2023/01/09 02:28:58;;;;;;;;;;;6.20;99.90;;;;;;5043307;28;19984;-70
2023/01/09 02:31:27;;;;;;;;;;;6.20;99.90;;;;;;5042988;28;19999;-70
2023/01/09 02:33:58;;;;;;;;;;;6.20;99.90;;;;;;5043299;27;19988;-70
2023/01/09 02:36:29;;;;;;;;;;;6.20;99.90;;;;;;5042866;28;19963;-71
2023/01/09 02:39:02;;;;;;;;;;;6.20;99.90;;;;;;5043102;28;19980;-71
2023/01/09 02:41:32;;;;;;;;;;;6.20;99.90;;;;;;5042020;28;20260;-70
2023/01/09 02:44:10;;;;;;;;;;;6.20;99.90;;;;;;5042819;28;19964;-71
2023/01/09 02:46:38;;;;;;;;;;;6.20;99.90;;;;;;5042694;28;19928;-70
2023/01/09 02:49:05;;;;;;;;;;;6.10;99.90;;;;;;5042923;28;19984;-71
2023/01/09 02:51:35;;;;;;;;;;;6.20;99.90;;;;;;5042803;28;20000;-70
2023/01/09 02:54:04;;;;;;;;;;;6.20;99.90;;;;;;5043335;28;19921;-70
2023/01/09 02:56:36;;;;;;;;;;;6.20;99.90;;;;;;5042550;28;19921;-70
2023/01/09 02:59:18;;;;;;;;;;;6.20;99.90;;;;;;5042919;28;20153;-70
2023/01/09 03:01:53;;;;;;;;;;;6.20;99.90;;;;;;5042562;28;19992;-70
2023/01/09 03:04:22;;;;;;;;;;;6.10;99.90;;;;;;5042813;28;19953;-70
2023/01/09 03:06:54;;;;;;;;;;;6.10;99.90;;;;;;5042332;28;19959;-70
2023/01/09 03:09:22;;;;;;;;;;;6.20;99.90;;;;;;5042476;28;19928;-70
2023/01/09 03:11:51;;;;;;;;;;;6.10;99.90;;;;;;5042611;28;19921;-70
2023/01/09 03:14:21;;;;;;;;;;;6.20;99.90;;;;;;5042253;28;20209;-70
2023/01/09 03:16:51;;;;;;;;;;;6.20;99.90;;;;;;5042486;28;19921;-71
2023/01/09 03:19:21;;;;;;;;;;;6.10;99.90;;;;;;5041454;28;19984;-71
2023/01/09 03:21:48;;;;;;;;;;;6.10;99.90;;;;;;5042089;28;19956;-70
2023/01/09 03:24:15;;;;;;;;;;;6.10;99.90;;;;;;5042373;28;20000;-70
2023/01/09 03:26:42;;;;;;;;;;;6.20;99.90;;;;;;5042052;28;19944;-70
2023/01/09 03:29:10;;;;;;;;;;;6.20;99.90;;;;;;5040854;28;19984;-70
2023/01/09 03:31:37;;;;;;;;;;;6.20;99.90;;;;;;5042285;28;19984;-70
2023/01/09 03:34:05;;;;;;;;;;;6.20;99.90;;;;;;5042297;28;19984;-70
2023/01/09 03:36:32;;;;;;;;;;;6.30;99.90;;;;;;5041959;28;20283;-72
2023/01/09 03:38:58;;;;;;;;;;;6.30;99.90;;;;;;5042034;28;20129;-70
2023/01/09 03:41:25;;;;;;;;;;;6.30;99.90;;;;;;5042049;28;20145;-71
2023/01/09 03:43:52;;;;;;;;;;;6.30;99.90;;;;;;5042030;28;19956;-71
2023/01/09 03:46:18;;;;;;;;;;;6.30;99.90;;;;;;5041900;28;19963;-70
2023/01/09 03:48:45;;;;;;;;;;;6.30;99.90;;;;;;5047426;28;19952;-70
2023/01/09 03:51:13;;;;;;;;;;;6.40;99.90;;;;;;5060859;27;19960;-70
2023/01/09 03:53:41;;;;;;;;;;;6.40;99.90;;;;;;5061648;27;19983;-70
2023/01/09 03:56:08;;;;;;;;;;;6.30;99.90;;;;;;5061300;27;19921;-71
2023/01/09 03:58:34;;;;;;;;;;;6.40;99.90;;;;;;5061720;28;19975;-70
2023/01/09 04:01:02;;;;;;;;;;;6.40;99.90;;;;;;5054037;27;19957;-70
2023/01/09 04:03:29;;;;;;;;;;;6.40;99.90;;;;;;5041401;28;20231;-71
2023/01/09 04:05:56;;;;;;;;;;;6.40;99.90;;;;;;5041652;28;19963;-71
2023/01/09 04:08:24;;;;;;;;;;;6.40;99.90;;;;;;5041570;28;19963;-70
2023/01/09 04:10:51;;;;;;;;;;;6.40;99.90;;;;;;5041452;28;19988;-70
2023/01/09 04:13:17;;;;;;;;;;;6.40;99.90;;;;;;5041662;28;19988;-70
2023/01/09 04:15:44;;;;;;;;;;;6.40;99.90;;;;;;5041328;28;19976;-71
2023/01/09 04:18:10;;;;;;;;;;;6.40;99.90;;;;;;5041467;28;20174;-70
2023/01/09 04:20:37;;;;;;;;;;;6.40;99.90;;;;;;5041193;28;20224;-71
2023/01/09 04:23:04;;;;;;;;;;;6.40;99.90;;;;;;5041165;27;20225;-70
2023/01/09 04:25:32;;;;;;;;;;;6.40;99.90;;;;;;5041105;28;19961;-70
2023/01/09 04:27:58;;;;;;;;;;;6.50;99.90;;;;;;5041060;28;20217;-71
2023/01/09 04:30:27;;;;;;;;;;;6.50;99.90;;;;;;5039996;28;19956;-70
2023/01/09 04:32:54;;;;;;;;;;;6.50;99.90;;;;;;5041146;28;19980;-70
2023/01/09 04:35:20;;;;;;;;;;;6.50;99.90;;;;;;5041325;28;19975;-70
2023/01/09 04:37:47;;;;;;;;;;;6.50;99.90;;;;;;5041176;28;19963;-71
2023/01/09 04:40:14;;;;;;;;;;;6.50;99.90;;;;;;5041198;28;19984;-70
2023/01/09 04:42:42;;;;;;;;;;;6.50;99.90;;;;;;5040942;28;19921;-70
2023/01/09 04:45:09;;;;;;;;;;;6.60;99.90;;;;;;5040974;28;19921;-70
2023/01/09 04:47:36;;;;;;;;;;;6.60;99.90;;;;;;5060019;28;19921;-71
2023/01/09 04:50:03;;;;;;;;;;;6.60;99.90;;;;;;5061100;27;19959;-70
2023/01/09 04:52:32;;;;;;;;;;;6.60;99.90;;;;;;5060501;28;19988;-70
2023/01/09 04:54:58;;;;;;;;;;;6.60;99.90;;;;;;5060946;28;19983;-70
2023/01/09 04:57:25;;;;;;;;;;;6.60;99.90;;;;;;5060354;28;19921;-70
2023/01/09 04:59:53;;;;;;;;;;;6.60;99.90;;;;;;5060963;27;19963;-71
2023/01/09 05:02:19;;;;;;;;;;;6.60;99.90;;;;;;5040693;28;19943;-71
2023/01/09 05:04:50;;;;;;;;;;;6.70;99.90;;;;;;5039776;28;19927;-71
2023/01/09 05:07:17;;;;;;;;;;;6.70;99.90;;;;;;5040382;28;19980;-71
2023/01/09 05:09:43;;;;;;;;;;;6.70;99.90;;;;;;5040539;28;20145;-70
2023/01/09 05:12:10;;;;;;;;;;;6.70;99.90;;;;;;5040588;28;19929;-70
2023/01/09 05:14:37;;;;;;;;;;;6.70;99.90;;;;;;5040913;28;19953;-69
2023/01/09 05:17:05;;;;;;;;;;;6.70;99.90;;;;;;5040108;28;20255;-71
2023/01/09 05:19:31;;;;;;;;;;;6.80;99.90;;;;;;5040523;28;20284;-70
2023/01/09 05:21:58;;;;;;;;;;;6.80;99.90;;;;;;5040624;28;19957;-71
2023/01/09 05:24:24;;;;;;;;;;;6.70;99.90;;;;;;5040736;28;19992;-70
2023/01/09 05:26:51;;;;;;;;;;;6.80;99.90;;;;;;5040264;28;19921;-70
2023/01/09 05:29:19;;;;;;;;;;;6.80;99.90;;;;;;5039202;28;20229;-70
2023/01/09 05:31:45;;;;;;;;;;;6.70;99.90;;;;;;5040641;28;19927;-72
2023/01/09 05:34:13;;;;;;;;;;;6.60;99.90;;;;;;5040583;28;19953;-72
2023/01/09 05:36:40;;;;;;;;;;;6.60;99.90;;;;;;5040098;28;19984;-71
2023/01/09 05:39:07;;;;;;;;;;;6.50;99.90;;;;;;5043213;28;19987;-70
2023/01/09 05:41:33;;;;;;;;;;;6.50;99.90;;;;;;5060362;27;19927;-70
2023/01/09 05:44:00;;;;;;;;;;;6.40;99.90;;;;;;5060160;28;20167;-70
2023/01/09 05:46:26;;;;;;;;;;;6.40;99.90;;;;;;5059839;28;20220;-71
2023/01/09 05:48:53;;;;;;;;;;;6.30;99.90;;;;;;5060283;27;19952;-70
2023/01/09 05:51:21;;;;;;;;;;;6.30;99.90;;;;;;5059769;27;19945;-70
2023/01/09 05:53:54;;;;;;;;;;;6.30;99.90;;;;;;5059560;28;19931;-69
2023/01/09 05:56:20;;;;;;;;;;;6.30;99.90;;;;;;5059847;27;19956;-71
2023/01/09 05:58:47;;;;;;;;;;;6.30;99.90;;;;;;5060246;27;19928;-70
2023/01/09 06:01:14;;;;;;;;;;;6.20;99.90;;;;;;5060156;27;20380;-70
2023/01/09 06:03:40;;;;;;;;;;;6.20;99.90;;;;;;5059917;27;20258;-70
2023/01/09 06:06:07;;;;;;;;;;;6.10;99.90;;;;;;5059942;27;19980;-71
2023/01/09 06:08:35;;;;;;;;;;;6.10;99.90;;;;;;5060019;28;19956;-69
2023/01/09 06:11:01;;;;;;;;;;;6.00;99.90;;;;;;5060120;27;19921;-70
2023/01/09 06:13:28;;;;;;;;;;;6.00;99.90;;;;;;5059840;27;19963;-71
2023/01/09 06:15:55;;;;;;;;;;;6.00;99.90;;;;;;5061894;27;19956;-71
2023/01/09 06:18:21;;;;;;;;;;;6.00;99.90;;;;;;5063357;27;19975;-70
2023/01/09 06:20:48;;;;;;;;;;;5.90;99.90;;;;;;5063348;27;19920;-71
2023/01/09 06:23:15;;;;;;;;;;;5.90;99.90;;;;;;5063071;28;19966;-73
2023/01/09 06:25:43;;;;;;;;;;;5.90;99.90;;;;;;5063464;27;19960;-72
2023/01/09 06:28:10;;;;;;;;;;;5.90;99.90;;;;;;5063212;27;19984;-70
2023/01/09 06:30:51;;;;;;;;;;;5.90;99.90;;;;;;5061731;27;19921;-70
2023/01/09 06:33:18;;;;;;;;;;;5.90;99.90;;;;;;5063182;27;19943;-71
2023/01/09 06:35:45;;;;;;;;;;;5.90;99.90;;;;;;5063244;27;19956;-71
2023/01/09 06:38:12;;;;;;;;;;;5.90;99.90;;;;;;5062721;28;20177;-69
2023/01/09 06:40:38;;;;;;;;;;;5.80;99.90;;;;;;5063004;27;19928;-70
2023/01/09 06:43:06;;;;;;;;;;;5.80;99.90;;;;;;5062876;28;19992;-70
2023/01/09 06:45:33;;;;;;;;;;;5.80;99.90;;;;;;5062808;27;19928;-70
2023/01/09 06:47:59;;;;;;;;;;;5.90;99.90;;;;;;5062916;27;19959;-70
2023/01/09 06:50:26;;;;;;;;;;;5.80;99.90;;;;;;5062254;27;20205;-70
2023/01/09 06:52:53;;;;;;;;;;;5.80;99.90;;;;;;5042550;28;19988;-70
2023/01/09 06:55:20;;;;;;;;;;;5.80;99.90;;;;;;5042538;28;19921;-69
2023/01/09 06:57:46;;;;;;;;;;;5.80;99.90;;;;;;5042731;28;19963;-71
2023/01/09 07:00:15;;;;;;;;;;;5.80;99.90;;;;;;5042711;28;19984;-70
2023/01/09 07:02:41;;;;;;;;;;;5.80;99.90;;;;;;5042831;28;19964;-70
2023/01/09 07:05:10;;;;;;;;;;;5.80;99.90;;;;;;5041759;28;19953;-70
2023/01/09 07:07:37;;;;;;;;;;;5.80;99.90;;;;;;5042268;28;20202;-69
2023/01/09 07:10:04;;;;;;;;;;;5.70;99.90;;;;;;5042387;28;19921;-70
2023/01/09 07:12:30;;;;;;;;;;;5.70;99.90;;;;;;5042425;28;19953;-71
2023/01/09 07:14:57;;;;;;;;;;;5.70;99.90;;;;;;5042568;28;20112;-70
2023/01/09 07:17:25;;;;;;;;;;;5.70;99.90;;;;;;5042486;28;19952;-71
2023/01/09 07:19:52;;;;;;;;;;;5.70;99.90;;;;;;5042217;28;19928;-69
2023/01/09 07:22:19;;;;;;;;;;;5.60;99.90;;;;;;5042396;28;19996;-70
2023/01/09 07:24:46;;;;;;;;;;;5.60;99.90;;;;;;5041855;28;19921;-71
2023/01/09 07:27:12;;;;;;;;;;;5.60;99.90;;;;;;5041820;28;19980;-70
2023/01/09 07:29:39;;;;;;;;;;;5.60;99.90;;;;;;5042318;28;19952;-70
2023/01/09 07:32:06;;;;;;;;;;;5.60;99.90;;;;;;5042006;28;20231;-69
2023/01/09 07:34:34;;;;;;;;;;;5.50;99.90;;;;;;5042176;28;19989;-70
2023/01/09 07:37:00;;;;;;;;;;;5.50;99.90;;;;;;5042107;28;19927;-70
2023/01/09 07:39:27;;;;;;;;;;;5.50;99.90;;;;;;5041858;28;19975;-70
2023/01/09 07:41:54;;;;;;;;;;;5.50;99.90;;;;;;5042216;28;19921;-70
2023/01/09 07:44:20;;;;;;;;;;;5.40;99.90;;;;;;5041848;28;19921;-69
2023/01/09 07:46:48;;;;;;;;;;;5.40;99.90;;;;;;5041377;28;20112;-70
2023/01/09 07:49:14;;;;;;;;;;;5.40;99.90;;;;;;5041671;27;19941;-71
2023/01/09 07:51:43;;;;;;;;;;;5.40;99.90;;;;;;5041968;28;19988;-70
2023/01/09 07:54:11;;;;;;;;;;;5.40;99.90;;;;;;5041870;28;19921;-70
2023/01/09 07:56:38;;;;;;;;;;;5.40;99.90;;;;;;5041675;28;19921;-70
2023/01/09 07:59:04;;;;;;;;;;;5.40;99.90;;;;;;5041613;28;19986;-71
2023/01/09 08:01:31;;;;;;;;;;;5.40;99.90;;;;;;5042025;28;19927;-70
2023/01/09 08:03:58;;;;;;;;;;;5.40;99.90;;;;;;5041996;28;19995;-70
2023/01/09 08:06:24;;;;;;;;;;;5.30;99.90;;;;;;5040757;28;20175;-70
2023/01/09 08:08:52;;;;;;;;;;;5.30;99.90;;;;;;5041568;28;19981;-72
2023/01/09 08:11:19;;;;;;;;;;;5.30;99.90;;;;;;5041564;28;19957;-71
2023/01/09 08:13:46;;;;;;;;;;;5.30;99.90;;;;;;5041683;28;19921;-70
2023/01/09 08:16:12;;;;;;;;;;;5.40;99.90;;;;;;5041367;28;19952;-71
2023/01/09 08:18:39;;;;;;;;;;;5.40;99.90;;;;;;5041214;28;19963;-71
2023/01/09 08:21:06;;;;;;;;;;;5.40;99.90;;;;;;5040798;28;19960;-71
2023/01/09 08:23:32;;;;;;;;;;;5.40;99.90;;;;;;5041478;28;19921;-70
2023/01/09 08:26:00;;;;;;;;;;;5.40;99.90;;;;;;5041023;28;20229;-71
2023/01/09 08:28:27;;;;;;;;;;;5.40;99.90;;;;;;5041496;28;20000;-70
2023/01/09 08:30:54;;;;;;;;;;;5.40;99.90;;;;;;5049217;28;19952;-70
2023/01/09 08:33:20;;;;;;;;;;;5.40;99.90;;;;;;5061404;28;19928;-70
2023/01/09 08:35:48;;;;;;;;;;;5.40;99.90;;;;;;5060594;27;19927;-71
2023/01/09 08:38:14;;;;;;;;;;;5.40;99.90;;;;;;5060602;27;19988;-70
2023/01/09 08:40:41;;;;;;;;;;;5.40;99.90;;;;;;5061392;27;19952;-70
2023/01/09 08:48:44;;;;;;;;;;;5.40;99.90;;;;;;5048550;28;20120;-70
2023/01/09 08:51:11;;;;;;;;;;;5.40;99.90;;;;;;5073607;28;19937;-70
2023/01/09 08:53:37;;;;;;;;;;;5.50;99.90;;;;;;5040695;28;19921;-70
2023/01/09 08:56:04;;;;;;;;;;;5.50;99.90;;;;;;5049070;28;20003;-70
2023/01/09 08:58:33;;;;;;;;;;;5.50;99.90;;;;;;5060845;28;19985;-70
2023/01/09 09:01:00;;;;;;;;;;;5.50;99.90;;;;;;5060509;27;20264;-70
2023/01/09 09:03:28;;;;;;;;;;;5.50;99.90;;;;;;5076954;28;20007;-70
2023/01/09 09:05:54;;;;;;;;;;;5.50;99.90;;;;;;5061261;28;19979;-70
2023/01/09 09:08:21;;;;;;;;;;;5.40;99.90;;;;;;5075898;27;19951;-70
2023/01/09 09:10:47;;;;;;;;;;;5.40;99.90;;;;;;5080336;28;19951;-70
2023/01/09 09:13:14;;;;;;;;;;;5.40;99.90;;;;;;5080641;28;19952;-70
2023/01/09 09:15:43;;;;;;;;;;;5.40;99.90;;;;;;5079815;28;19992;-71
2023/01/09 09:18:10;;;;;;;;;;;5.50;99.90;;;;;;5080259;28;19927;-69
2023/01/09 09:20:37;;;;;;;;;;;5.50;99.90;;;;;;5080315;28;19951;-71
2023/01/09 09:23:04;;;;;;;;;;;5.50;99.90;;;;;;5070519;28;19981;-70
2023/01/09 09:25:33;;;;;;;;;;;5.50;99.90;;;;;;5059931;28;20209;-70
2023/01/09 09:28:00;;;;;;;;;;;5.50;99.90;;;;;;5060275;28;19988;-70
2023/01/09 09:30:27;;;;;;;;;;;5.50;99.90;;;;;;5060293;27;19921;-72
2023/01/09 09:32:55;;;;;;;;;;;5.50;99.90;;;;;;5060609;27;19921;-70
2023/01/09 09:35:22;;;;;;;;;;;5.50;99.90;;;;;;5060924;27;19956;-70
2023/01/09 09:37:56;;;;;;;;;;;5.40;99.90;;;;;;5059928;28;19921;-71
2023/01/09 09:40:30;;;;;;;;;;;5.40;99.90;;;;;;5060186;27;19984;-70
2023/01/09 09:45:52;;;;;;;;;;;5.40;99.90;;;;;;5060022;28;19927;-71
2023/01/09 09:48:28;;;;;;;;;;;5.50;99.90;;;;;;5051150;27;19921;-70
2023/01/09 09:51:00;;;;;;;;;;;5.50;99.90;;;;;;5043852;28;20176;-71
2023/01/09 09:53:29;;;;;;;;;;;5.50;99.90;;;;;;5043586;28;19936;-70
2023/01/09 09:55:57;;;;;;;;;;;5.60;99.90;;;;;;5042605;28;19921;-71
2023/01/09 09:58:27;;;;;;;;;;;5.60;99.90;;;;;;5043820;28;19922;-70
2023/01/09 10:01:00;;;;;;;;;;;5.70;99.90;;;;;;5054427;27;19920;-70
2023/01/09 10:03:31;;;;;;;;;;;5.70;99.90;;;;;;5082898;28;19927;-72
2023/01/09 10:05:58;;;;;;;;;;;5.80;99.90;;;;;;5082305;28;19927;-70
2023/01/09 10:08:30;;;;;;;;;;;5.80;99.90;;;;;;5083290;28;19980;-70
2023/01/09 10:10:56;;;;;;;;;;;5.80;99.90;;;;;;5083133;28;19988;-70
2023/01/09 10:16:15;;;;;;;;;;;5.90;99.90;;;;;;5082962;28;19957;-70
2023/01/09 10:18:47;;;;;;;;;;;5.90;99.90;;;;;;5083135;28;19920;-70
2023/01/09 10:21:16;;;;;;;;;;;6.00;99.90;;;;;;5082999;28;20135;-71
2023/01/09 10:23:57;;;;;;;;;;;6.00;99.90;;;;;;5083008;28;19924;-71
2023/01/09 10:26:27;;;;;;;;;;;6.00;99.90;;;;;;5082710;28;19920;-70
2023/01/09 10:29:12;;;;;;;;;;;6.10;99.90;;;;;;5083234;28;19920;-70
2023/01/09 10:31:44;;;;;;;;;;;6.10;99.90;;;;;;5083270;27;19927;-70
2023/01/09 10:34:18;;;;;;;;;;;6.10;99.90;;;;;;5083100;28;19959;-71
2023/01/09 10:36:57;;;;;;;;;;;6.10;99.90;;;;;;5082544;28;20204;-70
2023/01/09 10:39:29;;;;;;;;;;;6.10;99.90;;;;;;5065246;28;19944;-70
2023/01/09 10:41:58;;;;;;;;;;;6.00;99.90;;;;;;5062912;28;19921;-70
2023/01/09 10:44:26;;;;;;;;;;;6.00;99.90;;;;;;5078885;27;19976;-70
2023/01/09 10:46:54;;;;;;;;;;;6.00;99.90;;;;;;5082663;28;20116;-70
2023/01/09 10:49:23;;;;;;;;;;;6.00;99.90;;;;;;5060425;28;19925;-70
2023/01/09 10:51:51;;;;;;;;;;;6.00;99.90;;;;;;5042922;28;19921;-70
2023/01/09 10:54:18;;;;;;;;;;;6.00;99.90;;;;;;5042630;28;19921;-70
2023/01/09 10:56:49;;;;;;;;;;;6.00;99.90;;;;;;5058415;28;20262;-70
2023/01/09 10:59:16;;;;;;;;;;;6.00;99.90;;;;;;5062823;28;19959;-69
2023/01/09 11:01:43;;;;;;;;;;;6.10;99.90;;;;;;5062099;27;19927;-70
2023/01/09 11:04:17;;;;;;;;;;;6.10;99.90;;;;;;5062615;27;20205;-70
2023/01/09 11:06:56;;;;;;;;;;;6.10;99.90;;;;;;5061796;27;19943;-70
2023/01/09 11:09:22;;;;;;;;;;;6.10;99.90;;;;;;5062321;27;19988;-71
2023/01/09 11:11:49;;;;;;;;;;;6.10;99.90;;;;;;5062429;28;19983;-70
2023/01/09 11:14:17;;;;;;;;;;;6.10;99.90;;;;;;5062725;27;19975;-70
2023/01/09 11:16:53;;;;;;;;;;;6.10;99.90;;;;;;5062196;27;19983;-70
2023/01/09 11:19:20;;;;;;;;;;;6.10;99.90;;;;;;5062176;27;19928;-71
2023/01/09 11:21:47;;;;;;;;;;;6.10;99.90;;;;;;5062153;27;19987;-70
2023/01/09 11:24:27;;;;;;;;;;;6.20;99.90;;;;;;5062462;27;19979;-70
2023/01/09 11:27:09;;;;;;;;;;;6.20;99.90;;;;;;5062224;27;19963;-70
2023/01/09 11:29:36;;;;;;;;;;;6.10;99.90;;;;;;5062153;27;19983;-70
2023/01/09 11:32:02;;;;;;;;;;;6.10;99.90;;;;;;5062363;27;19952;-70
2023/01/09 11:34:31;;;;;;;;;;;6.10;99.90;;;;;;5062163;28;19989;-70
2023/01/09 11:37:03;;;;;;;;;;;6.20;99.90;;;;;;5062032;27;19983;-70
2023/01/09 11:39:32;;;;;;;;;;;6.20;99.90;;;;;;5062291;27;19997;-70
2023/01/09 11:41:59;;;;;;;;;;;6.10;99.90;;;;;;5061645;28;19921;-71
2023/01/09 11:44:27;;;;;;;;;;;6.10;99.90;;;;;;5061782;28;19921;-71
2023/01/09 11:46:54;;;;;;;;;;;6.10;99.90;;;;;;5061699;27;19952;-70
2023/01/09 11:49:22;;;;;;;;;;;6.20;99.90;;;;;;5056654;27;19921;-70
2023/01/09 11:52:04;;;;;;;;;;;6.20;99.90;;;;;;5042160;28;19962;-70
2023/01/09 11:54:34;;;;;;;;;;;6.20;99.90;;;;;;5041915;28;20116;-70
2023/01/09 11:57:00;;;;;;;;;;;6.20;99.90;;;;;;5059865;28;19920;-70
2023/01/09 11:59:28;;;;;;;;;;;6.20;99.90;;;;;;5061425;27;20419;-71
2023/01/09 12:02:10;;;;;;;;;;;6.20;99.90;;;;;;5061576;28;19921;-70
2023/01/09 12:04:41;;;;;;;;;;;6.20;99.90;;;;;;5061802;27;20116;-71
2023/01/09 12:07:18;;;;;;;;;;;6.20;99.90;;;;;;5060984;27;19920;-70
2023/01/09 12:09:53;;;;;;;;;;;6.20;99.90;;;;;;5061552;28;19921;-71
2023/01/09 12:12:26;;;;;;;;;;;6.20;99.90;;;;;;5060581;27;20055;-70
2023/01/09 12:14:59;;;;;;;;;;;6.20;99.90;;;;;;5061538;27;19958;-70
2023/01/09 12:17:40;;;;;;;;;;;6.20;99.90;;;;;;5056657;27;19921;-70
2023/01/09 12:20:24;;;;;;;;;;;6.20;99.90;;;;;;5046760;28;19921;-70
2023/01/09 12:22:56;;;;;;;;;;;6.10;99.90;;;;;;5047790;28;19921;-71
2023/01/09 12:25:28;;;;;;;;;;;6.20;99.90;;;;;;5041115;28;19921;-70
2023/01/09 12:28:00;;;;;;;;;;;6.20;99.90;;;;;;5041490;28;20260;-72
2023/01/09 12:30:42;;;;;;;;;;;6.20;99.90;;;;;;5041257;28;19928;-70
2023/01/09 12:33:18;;;;;;;;;;;6.20;99.90;;;;;;5042534;28;19997;-71
2023/01/09 12:35:46;;;;;;;;;;;6.20;99.90;;;;;;5041072;28;19921;-71
2023/01/09 12:38:29;;;;;;;;;;;6.10;99.90;;;;;;5040928;28;20172;-70
2023/01/09 12:41:03;;;;;;;;;;;6.10;99.90;;;;;;5040912;28;19929;-70
2023/01/09 12:43:35;;;;;;;;;;;6.10;99.90;;;;;;5040498;28;20021;-70
2023/01/09 12:46:08;;;;;;;;;;;6.10;99.90;;;;;;5040331;28;19984;-71
2023/01/09 12:48:43;;;;;;;;;;;6.10;99.90;;;;;;5040947;28;19921;-70
2023/01/09 12:51:23;;;;;;;;;;;6.20;99.90;;;;;;5040512;28;19959;-70
2023/01/09 12:53:52;;;;;;;;;;;6.10;99.90;;;;;;5041197;28;19988;-70
2023/01/09 12:56:25;;;;;;;;;;;6.10;99.90;;;;;;5039909;28;19988;-70
2023/01/09 12:58:52;;;;;;;;;;;6.10;99.90;;;;;;5040413;28;19952;-70
2023/01/09 13:01:22;;;;;;;;;;;6.20;99.90;;;;;;5040451;28;19957;-70
2023/01/09 13:03:51;;;;;;;;;;;6.20;99.90;;;;;;5040768;28;19952;-69
2023/01/09 13:06:21;;;;;;;;;;;6.30;99.90;;;;;;5039760;28;20197;-69
2023/01/09 13:08:49;;;;;;;;;;;6.30;99.90;;;;;;5040798;28;19961;-70
2023/01/09 13:11:18;;;;;;;;;;;6.30;99.90;;;;;;5040275;28;20217;-69
2023/01/09 13:13:48;;;;;;;;;;;6.30;99.90;;;;;;5040837;28;19930;-69
2023/01/09 13:16:17;;;;;;;;;;;6.30;99.90;;;;;;5040408;28;19980;-71
2023/01/09 13:18:46;;;;;;;;;;;6.30;99.90;;;;;;5040635;28;20165;-70
2023/01/09 13:21:15;;;;;;;;;;;6.40;99.90;;;;;;5040448;28;19956;-70
2023/01/09 13:23:46;;;;;;;;;;;6.40;99.90;;;;;;5040666;28;20173;-70
2023/01/09 13:26:15;;;;;;;;;;;6.40;99.90;;;;;;5043762;28;20221;-69
2023/01/09 13:28:45;;;;;;;;;;;6.40;99.90;;;;;;5046189;28;19952;-72
2023/01/09 13:31:27;;;;;;;;;;;6.40;99.90;;;;;;5065369;28;19921;-71
2023/01/09 13:33:56;;;;;;;;;;;6.50;99.90;;;;;;5065484;27;19959;-70
2023/01/09 13:36:25;;;;;;;;;;;6.60;99.90;;;;;;5063882;27;19948;-70
2023/01/09 13:38:53;;;;;;;;;;;6.70;99.90;;;;;;5064304;27;19948;-70
2023/01/09 13:44:21;;;;;;;;;;;6.80;99.90;;;;;;5068118;28;19917;-70
2023/01/09 13:46:49;;;;;;;;;;;7.00;99.90;;;;;;5043385;28;19921;-70
2023/01/09 13:49:53;;;;;;;;;;;7.00;99.90;;;;;;5043965;28;19960;-70
2023/01/09 13:52:31;;;;;;;;;;;6.90;99.90;;;;;;5043724;27;19984;-70
2023/01/09 13:55:15;;;;;;;;;;;6.80;99.90;;;;;;5126279;27;19975;-71
2023/01/09 13:57:43;;;;;;;;;;;6.80;99.90;;;;;;5066378;27;19983;-70
2023/01/09 14:00:29;;;;;;;;;;;6.80;99.90;;;;;;5100425;27;19919;-70
2023/01/09 14:02:56;;;;;;;;;;;6.80;99.90;;;;;;5169297;27;19958;-70
2023/01/09 14:05:40;;;;;;;;;;;6.80;99.90;;;;;;5168396;27;19919;-70
2023/01/09 14:08:11;;;;;;;;;;;6.80;99.90;;;;;;5151532;27;19955;-70
2023/01/09 14:10:46;;;;;;;;;;;6.80;99.90;;;;;;5168785;27;20106;-70
2023/01/09 14:13:14;;;;;;;;;;;6.70;99.90;;;;;;5091339;27;19921;-71
2023/01/09 14:15:43;;;;;;;;;;;6.80;99.90;;;;;;5061957;28;19988;-70
2023/01/09 14:18:15;;;;;;;;;;;6.80;99.90;;;;;;5087354;27;19957;-71
2023/01/09 14:20:44;;;;;;;;;;;6.80;99.90;;;;;;5063671;27;19956;-70
2023/01/09 14:23:20;;;;;;;;;;;6.80;99.90;;;;;;5073763;27;19921;-70
2023/01/09 14:25:47;;;;;;;;;;;6.60;99.90;;;;;;5053068;27;19928;-70
2023/01/09 14:28:20;;;;;;;;;;;6.10;99.90;;;;;;5079712;27;20021;-71
2023/01/09 14:31:03;;;;;;;;;;;5.70;99.90;;;;;;5094521;27;19952;-70
2023/01/09 14:33:31;;;;;;;;;;;5.40;99.90;;;;;;5083108;28;19932;-69
2023/01/09 14:36:03;;;;;;;;;;;5.30;99.90;;;;;;5114387;27;19920;-70
2023/01/09 14:38:33;;;;;;;;;;;5.20;99.90;;;;;;5083038;28;19962;-70
2023/01/09 14:41:03;;;;;;;;;;;5.10;99.90;;;;;;5117943;27;19946;-70
2023/01/09 14:43:39;;;;;;;;;;;5.20;99.90;;;;;;5066605;27;19921;-70
2023/01/09 14:46:10;;;;;;;;;;;5.20;99.90;;;;;;5077270;27;19964;-71
2023/01/09 14:48:40;;;;;;;;;;;5.30;99.90;;;;;;5167487;27;19938;-70
2023/01/09 14:51:11;;;;;;;;;;;5.30;99.90;;;;;;5087282;27;20147;-70
2023/01/09 14:53:39;;;;;;;;;;;5.40;99.90;;;;;;5057565;28;19927;-70
2023/01/09 14:56:07;;;;;;;;;;;5.40;99.90;;;;;;5086954;27;19954;-70
2023/01/09 14:58:34;;;;;;;;;;;5.50;99.90;;;;;;5084150;27;19921;-69